KLNS

Lancaster Airport

Lancaster, Pennsylvania, USA
METAR KLNS 171553Z 20004KT 9SM CLR 29/24 A3005 RMK AO2 SLP171 T02890244
Observed Flight Rules
Aug-17 @ 15:53 UTC (59 minutes ago) Visual Flight Rules
Wind Visibility Clouds
200° at 4 knots 9 miles
  • Clear skies
Temperatures Readings
Current 29°C / 84°F
Dewpoint 24°C / 75°F
Humidity 74%
Altimeter 30.05" Hg
Pressure 1017.1 hPa
Elevation 125
METAR KLNS 171553Z 20004KT 9SM CLR 29/24 A3005 RMK AO2 SLP171 T02890244
Observed Flight Rules
Aug-17 @ 15:53 UTC
(59 minutes ago)
VFR
Wind Visibility
200° at 4 knots 9 miles
Clouds
  • Clear skies
Temperature Dewpoint
29°C / 84°F 24°C / 75°F
Humidity Altimeter Pressure
74% 30.05" Hg 1017.1 hPa